createdAt,value
2018-01-28T00:06:19.016Z,80.70
2018-01-28T00:16:20.608Z,79.00
2018-01-28T00:26:22.200Z,78.70
2018-01-28T00:36:23.801Z,77.70
2018-01-28T00:46:25.350Z,77.50
2018-01-28T00:56:26.933Z,78.00
2018-01-28T01:06:29.285Z,76.50
2018-01-28T01:16:30.826Z,76.50
2018-01-28T01:26:32.412Z,76.60
2018-01-28T01:36:34.036Z,76.90
2018-01-28T01:46:42.011Z,76.90
2018-01-28T01:56:44.220Z,76.80
2018-01-28T02:06:46.482Z,75.80
2018-01-28T02:16:48.071Z,75.70
2018-01-28T02:26:49.683Z,75.70
2018-01-28T02:36:51.518Z,75.90
2018-01-28T02:46:53.092Z,75.60
2018-01-28T02:56:54.638Z,74.50
2018-01-28T03:06:56.922Z,71.50
2018-01-28T03:16:58.475Z,71.50
2018-01-28T03:27:00.108Z,69.90
2018-01-28T03:37:01.678Z,70.30
2018-01-28T03:47:03.197Z,69.40
2018-01-28T03:57:04.749Z,70.50
2018-01-28T04:07:07.160Z,70.80
2018-01-28T04:17:08.675Z,70.60
2018-01-28T04:27:11.005Z,72.20
2018-01-28T04:37:13.502Z,76.30
2018-01-28T04:47:15.024Z,76.20
2018-01-28T04:57:17.367Z,82.60
2018-01-28T05:07:18.894Z,82.60
2018-01-28T05:17:20.444Z,83.00
2018-01-28T05:27:22.004Z,83.70
2018-01-28T05:37:23.540Z,84.20
2018-01-28T05:47:25.089Z,82.80
2018-01-28T05:57:26.600Z,81.60
2018-01-28T06:07:28.102Z,79.90
2018-01-28T06:17:29.640Z,80.00
2018-01-28T06:27:31.165Z,79.70
2018-01-28T06:37:32.763Z,79.60
2018-01-28T06:47:34.378Z,79.50
2018-01-28T06:57:35.905Z,79.40
2018-01-28T07:07:37.388Z,79.10
2018-01-28T07:17:38.924Z,79.40
2018-01-28T07:27:41.224Z,78.70
2018-01-28T07:37:42.785Z,78.70
2018-01-28T07:47:44.309Z,78.90
2018-01-28T07:57:45.842Z,78.30
2018-01-28T08:07:48.200Z,78.30
2018-01-28T08:17:50.990Z,78.40
2018-01-28T08:27:54.361Z,76.90
2018-01-28T08:37:55.917Z,76.90
2018-01-28T08:47:57.600Z,76.40
2018-01-28T08:57:59.105Z,76.70
2018-01-28T09:08:00.720Z,77.10
2018-01-28T09:18:03.041Z,75.80
2018-01-28T09:28:05.375Z,74.80
2018-01-28T09:38:06.879Z,74.70
2018-01-28T09:48:08.450Z,73.60
2018-01-28T09:58:10.012Z,73.20
2018-01-28T10:08:11.609Z,72.60
2018-01-28T10:18:13.195Z,72.80
2018-01-28T10:28:14.738Z,72.30
2018-01-28T10:38:16.288Z,73.00
2018-01-28T10:48:17.940Z,73.80
2018-01-28T10:58:19.506Z,73.40
2018-01-28T11:08:21.111Z,73.00
2018-01-28T11:18:22.826Z,73.40
2018-01-28T11:28:24.456Z,73.30
2018-01-28T11:38:26.042Z,73.20
2018-01-28T11:48:27.708Z,72.80
2018-01-28T11:58:29.289Z,72.30
2018-01-28T12:08:30.866Z,71.80
2018-01-28T12:18:33.316Z,70.70
2018-01-28T12:28:34.883Z,70.60
2018-01-28T12:38:36.507Z,70.60
2018-01-28T12:48:38.123Z,71.00
2018-01-28T12:58:39.896Z,70.70
2018-01-28T13:08:42.242Z,70.00
2018-01-28T13:18:43.948Z,69.80
2018-01-28T13:28:45.740Z,69.20
2018-01-28T13:38:47.400Z,70.30
2018-01-28T13:48:51.668Z,71.00
2018-01-28T13:58:54.478Z,70.10
2018-01-28T14:08:56.092Z,69.60
2018-01-28T14:18:57.715Z,70.00
2018-01-28T14:29:00.618Z,71.70
2018-01-28T14:39:03.113Z,71.00
2018-01-28T14:49:04.951Z,70.90
2018-01-28T14:59:06.639Z,71.20
2018-01-28T15:09:08.166Z,73.00
2018-01-28T15:19:09.796Z,73.10
2018-01-28T15:29:12.065Z,74.00
2018-01-28T15:39:13.617Z,74.00
2018-01-28T15:49:16.227Z,75.60
2018-01-28T15:59:18.699Z,77.90
2018-01-28T16:09:20.233Z,77.00
2018-01-28T16:19:21.775Z,77.80
2018-01-28T16:29:23.304Z,78.00
2018-01-28T16:39:24.825Z,77.00
2018-01-28T16:49:26.355Z,77.10
2018-01-28T16:59:27.976Z,76.90
2018-01-28T17:09:29.744Z,76.30
2018-01-28T17:19:31.308Z,77.10
2018-01-28T17:29:32.912Z,75.40
2018-01-28T17:39:34.432Z,75.60
2018-01-28T17:49:36.073Z,74.50
2018-01-28T17:59:38.508Z,74.60
2018-01-28T18:09:41.087Z,74.50
2018-01-28T18:19:42.696Z,74.70
2018-01-28T18:29:44.266Z,74.40
2018-01-28T18:39:45.828Z,74.20
2018-01-28T18:49:47.418Z,74.20
2018-01-28T18:59:49.720Z,74.00
2018-01-28T19:09:52.014Z,74.10
2018-01-28T19:19:53.599Z,73.80
2018-01-28T19:29:55.154Z,74.40
2018-01-28T19:39:56.758Z,74.80
2018-01-28T19:49:59.072Z,75.60
2018-01-28T20:00:01.446Z,75.40
2018-01-28T20:10:03.056Z,75.40
2018-01-28T20:20:04.773Z,75.90
2018-01-28T20:30:07.242Z,76.10
2018-01-28T20:40:09.139Z,76.10
2018-01-28T20:50:10.734Z,76.20
2018-01-28T21:00:12.477Z,76.40
2018-01-28T21:10:14.377Z,77.10
2018-01-28T21:20:16.133Z,77.00
2018-01-28T21:30:18.424Z,77.50
2018-01-28T21:40:19.901Z,77.40
2018-01-28T21:50:21.974Z,77.90
2018-01-28T22:00:23.604Z,78.40
2018-01-28T22:10:25.339Z,78.70
2018-01-28T22:20:27.650Z,78.90
2018-01-28T22:30:29.412Z,78.80
2018-01-28T22:40:30.901Z,78.40
2018-01-28T22:50:33.094Z,78.10
2018-01-28T23:00:34.627Z,78.10
2018-01-28T23:10:36.569Z,77.90
2018-01-28T23:20:38.537Z,77.90
2018-01-28T23:30:40.088Z,78.00
2018-01-28T23:40:41.596Z,77.60
2018-01-28T23:50:43.134Z,77.90
